Time;durP1;ratioP1;P1;durP2;ratioP2;P2;SDS_P1;SDS_P2;PMS_P1;PMS_P2;Temp;Humidity;BMP_temperature;BMP_pressure;BME280_temperature;BME280_humidity;BME280_pressure;Samples;Min_cycle;Max_cycle;Signal;HPM_P1;HPM_P2
2022/12/20 00:01:47;;;;;;;29.30;23.07;;;;;;;;;;5104102;28;20497;-75
2022/12/20 00:04:14;;;;;;;27.57;24.60;;;;;;;;;;5110709;28;20439;-76
2022/12/20 00:06:42;;;;;;;30.00;25.40;;;;;;;;;;5105606;28;20467;-73
2022/12/20 00:09:10;;;;;;;28.63;23.97;;;;;;;;;;5089097;28;20444;-79
2022/12/20 00:11:39;;;;;;;27.07;24.17;;;;;;;;;;5095929;28;20442;-75
2022/12/20 00:14:07;;;;;;;26.63;23.77;;;;;;;;;;5081708;28;20428;-75
2022/12/20 00:16:34;;;;;;;29.73;24.07;;;;;;;;;;5090638;28;20452;-75
2022/12/20 00:19:02;;;;;;;27.07;23.53;;;;;;;;;;5086091;28;20939;-75
2022/12/20 00:21:29;;;;;;;27.60;23.17;;;;;;;;;;5084712;28;20440;-75
2022/12/20 00:23:58;;;;;;;27.50;24.50;;;;;;;;;;5085796;28;20931;-74
2022/12/20 00:26:26;;;;;;;27.83;24.83;;;;;;;;;;5085869;28;20472;-74
2022/12/20 00:28:53;;;;;;;26.03;23.20;;;;;;;;;;5089542;28;20451;-74
2022/12/20 00:31:21;;;;;;;27.53;23.77;;;;;;;;;;5103769;28;20442;-75
2022/12/20 00:33:49;;;;;;;25.87;23.10;;;;;;;;;;5109806;28;20446;-75
2022/12/20 00:36:17;;;;;;;27.50;23.47;;;;;;;;;;5110388;28;20461;-77
2022/12/20 00:38:45;;;;;;;26.47;23.67;;;;;;;;;;5110817;28;20453;-74
2022/12/20 00:41:14;;;;;;;28.57;25.43;;;;;;;;;;5110516;28;20962;-75
2022/12/20 00:43:42;;;;;;;27.60;23.03;;;;;;;;;;5109495;28;21017;-75
2022/12/20 00:46:10;;;;;;;28.27;24.20;;;;;;;;;;5110438;28;20458;-76
2022/12/20 00:48:37;;;;;;;26.23;23.43;;;;;;;;;;5110106;28;20439;-75
2022/12/20 00:51:05;;;;;;;27.20;24.37;;;;;;;;;;5110450;28;20438;-74
2022/12/20 00:53:32;;;;;;;28.60;23.93;;;;;;;;;;5079820;28;20538;-76
2022/12/20 00:56:00;;;;;;;28.13;23.23;;;;;;;;;;5078916;28;20475;-75
2022/12/20 00:58:28;;;;;;;25.37;22.67;;;;;;;;;;5069435;28;20451;-75
2022/12/20 01:00:56;;;;;;;24.67;22.07;;;;;;;;;;5070818;28;20440;-76
2022/12/20 01:03:23;;;;;;;24.87;22.23;;;;;;;;;;5070399;28;20484;-75
2022/12/20 01:05:51;;;;;;;26.77;22.30;;;;;;;;;;5070457;28;20443;-74
2022/12/20 01:08:18;;;;;;;26.60;23.70;;;;;;;;;;5069784;28;20947;-75
2022/12/20 01:10:46;;;;;;;27.60;24.57;;;;;;;;;;5070277;28;20451;-75
2022/12/20 01:13:13;;;;;;;27.60;23.17;;;;;;;;;;5070471;28;20582;-74
2022/12/20 01:15:42;;;;;;;26.93;22.47;;;;;;;;;;5089585;28;20468;-74
2022/12/20 01:18:09;;;;;;;27.23;22.97;;;;;;;;;;5092351;28;20440;-74
2022/12/20 01:20:36;;;;;;;29.70;25.10;;;;;;;;;;5091660;28;20448;-75
2022/12/20 01:23:03;;;;;;;27.17;23.07;;;;;;;;;;5091248;28;20846;-75
2022/12/20 01:25:30;;;;;;;26.53;23.80;;;;;;;;;;5090835;28;20447;-77
2022/12/20 01:27:57;;;;;;;28.87;24.67;;;;;;;;;;5090370;28;20498;-76
2022/12/20 01:30:25;;;;;;;28.07;22.83;;;;;;;;;;5090573;28;20467;-74
2022/12/20 01:32:53;;;;;;;27.60;22.90;;;;;;;;;;5089924;28;20440;-74
2022/12/20 01:35:20;;;;;;;26.43;23.60;;;;;;;;;;5090229;28;20431;-74
2022/12/20 01:37:47;;;;;;;25.70;22.90;;;;;;;;;;5090046;28;20463;-75
2022/12/20 01:40:14;;;;;;;24.73;22.13;;;;;;;;;;5090646;28;20455;-75
2022/12/20 01:42:41;;;;;;;26.40;23.70;;;;;;;;;;5090322;28;20482;-75
2022/12/20 01:45:09;;;;;;;26.30;23.50;;;;;;;;;;5091306;28;20447;-74
2022/12/20 01:47:37;;;;;;;27.13;23.20;;;;;;;;;;5091260;28;20467;-73
2022/12/20 01:50:08;;;;;;;25.67;22.97;;;;;;;;;;5091442;28;20467;-75
2022/12/20 01:52:36;;;;;;;25.60;22.53;;;;;;;;;;5091166;28;20444;-74
2022/12/20 01:55:05;;;;;;;28.30;23.00;;;;;;;;;;5090670;28;20455;-75
2022/12/20 01:57:35;;;;;;;25.27;22.67;;;;;;;;;;5089340;28;20848;-73
2022/12/20 02:00:03;;;;;;;29.30;22.10;;;;;;;;;;5089629;28;20466;-75
2022/12/20 02:02:31;;;;;;;25.07;22.50;;;;;;;;;;5089434;28;20480;-76
2022/12/20 02:04:58;;;;;;;25.67;23.10;;;;;;;;;;5089779;28;20451;-74
2022/12/20 02:07:27;;;;;;;26.00;23.40;;;;;;;;;;5089186;28;20486;-74
2022/12/20 02:09:54;;;;;;;28.40;23.27;;;;;;;;;;5078483;28;20448;-76
2022/12/20 02:12:23;;;;;;;28.93;23.10;;;;;;;;;;5086957;28;20435;-75
2022/12/20 02:14:59;;;;;;;26.53;23.13;;;;;;;;;;5092498;28;20553;-74
2022/12/20 02:17:30;;;;;;;25.43;22.43;;;;;;;;;;5092016;28;20471;-75
2022/12/20 02:20:12;;;;;;;26.53;23.77;;;;;;;;;;5088477;28;20459;-74
2022/12/20 02:22:46;;;;;;;25.60;21.53;;;;;;;;;;5102015;28;20479;-74
2022/12/20 02:25:28;;;;;;;25.17;22.57;;;;;;;;;;5104061;28;20426;-74
2022/12/20 02:28:00;;;;;;;28.50;22.67;;;;;;;;;;5099927;28;20890;-75
2022/12/20 02:30:29;;;;;;;23.43;20.93;;;;;;;;;;5091154;28;20463;-75
2022/12/20 02:32:59;;;;;;;25.17;22.43;;;;;;;;;;5090517;28;20439;-75
2022/12/20 02:35:29;;;;;;;23.87;21.37;;;;;;;;;;5083703;28;20768;-75
2022/12/20 02:37:57;;;;;;;27.77;23.30;;;;;;;;;;5079994;28;20513;-75
2022/12/20 02:40:26;;;;;;;25.20;22.47;;;;;;;;;;5079587;28;20448;-76
2022/12/20 02:42:55;;;;;;;25.03;21.50;;;;;;;;;;5077304;28;20483;-76
2022/12/20 02:45:25;;;;;;;27.20;22.50;;;;;;;;;;5078455;28;20526;-74
2022/12/20 02:47:55;;;;;;;26.17;22.90;;;;;;;;;;5084326;28;20459;-74
2022/12/20 02:50:24;;;;;;;26.80;22.20;;;;;;;;;;5090646;28;20420;-74
2022/12/20 02:52:51;;;;;;;25.27;22.57;;;;;;;;;;5097151;28;20447;-75
2022/12/20 02:55:19;;;;;;;24.60;22.00;;;;;;;;;;5091176;28;20818;-75
2022/12/20 02:57:49;;;;;;;25.40;22.70;;;;;;;;;;5090203;28;20477;-77
2022/12/20 03:00:18;;;;;;;24.70;21.93;;;;;;;;;;5090045;28;20451;-74
2022/12/20 03:05:33;;;;;;;23.00;19.93;;;;;;;;;;5095626;28;20407;-76
2022/12/20 03:08:00;;;;;;;25.90;21.73;;;;;;;;;;5096882;28;20476;-75
2022/12/20 03:10:29;;;;;;;23.87;21.50;;;;;;;;;;5094348;28;20522;-75
2022/12/20 03:12:56;;;;;;;24.37;21.83;;;;;;;;;;5097353;28;20443;-74
2022/12/20 03:15:23;;;;;;;23.67;21.10;;;;;;;;;;5107839;28;20432;-75
2022/12/20 03:17:50;;;;;;;23.53;20.97;;;;;;;;;;5092265;28;20479;-75
2022/12/20 03:20:17;;;;;;;21.93;19.73;;;;;;;;;;5091995;28;20448;-75
2022/12/20 03:22:45;;;;;;;23.13;20.67;;;;;;;;;;5080154;28;20489;-74
2022/12/20 03:25:12;;;;;;;23.87;20.53;;;;;;;;;;5092052;28;20439;-74
2022/12/20 03:27:39;;;;;;;24.00;19.63;;;;;;;;;;5091877;28;20462;-76
2022/12/20 03:30:07;;;;;;;22.70;20.30;;;;;;;;;;5091984;28;20446;-74
2022/12/20 03:32:34;;;;;;;24.63;20.43;;;;;;;;;;5106086;28;20440;-77
2022/12/20 03:35:01;;;;;;;23.40;20.60;;;;;;;;;;5116214;28;20439;-77
2022/12/20 03:37:28;;;;;;;23.43;20.43;;;;;;;;;;5100109;28;20456;-75
2022/12/20 03:39:57;;;;;;;22.87;20.27;;;;;;;;;;5091985;28;20451;-75
2022/12/20 03:42:24;;;;;;;23.50;21.00;;;;;;;;;;5091917;28;21172;-74
2022/12/20 03:44:51;;;;;;;23.17;20.73;;;;;;;;;;5093801;28;20450;-75
2022/12/20 03:47:18;;;;;;;22.10;19.80;;;;;;;;;;5094572;28;20520;-75
2022/12/20 03:49:45;;;;;;;22.10;19.80;;;;;;;;;;5094164;28;20550;-75
2022/12/20 03:52:13;;;;;;;23.53;21.03;;;;;;;;;;5091337;28;20451;-75
2022/12/20 03:54:40;;;;;;;23.17;20.77;;;;;;;;;;5090703;28;20976;-74
2022/12/20 03:57:08;;;;;;;22.63;20.33;;;;;;;;;;5090684;28;20468;-75
2022/12/20 03:59:35;;;;;;;21.20;19.00;;;;;;;;;;5090100;28;20550;-75
2022/12/20 04:02:02;;;;;;;26.10;21.20;;;;;;;;;;5082969;28;20444;-75
2022/12/20 04:04:29;;;;;;;24.10;20.20;;;;;;;;;;5089803;28;21013;-76
2022/12/20 04:06:56;;;;;;;24.50;21.87;;;;;;;;;;5100886;28;20814;-74
2022/12/20 04:09:23;;;;;;;24.23;20.13;;;;;;;;;;5110683;28;20809;-75
2022/12/20 04:11:51;;;;;;;23.10;20.70;;;;;;;;;;5110436;28;20458;-75
2022/12/20 04:14:19;;;;;;;23.43;20.10;;;;;;;;;;5102664;28;20813;-74
2022/12/20 04:16:46;;;;;;;24.73;21.10;;;;;;;;;;5089890;28;20966;-75
2022/12/20 04:19:13;;;;;;;24.37;21.07;;;;;;;;;;5091806;28;20545;-75
2022/12/20 04:21:40;;;;;;;22.80;20.30;;;;;;;;;;5093443;28;20443;-73
2022/12/20 04:24:07;;;;;;;21.87;19.57;;;;;;;;;;5094420;28;20474;-75
2022/12/20 04:26:34;;;;;;;26.50;21.17;;;;;;;;;;5094493;28;20471;-76
2022/12/20 04:29:01;;;;;;;23.57;20.27;;;;;;;;;;5090610;28;20443;-75
2022/12/20 04:31:30;;;;;;;24.40;20.50;;;;;;;;;;5090407;28;20448;-74
2022/12/20 04:33:57;;;;;;;23.10;20.70;;;;;;;;;;5089158;28;20442;-74
2022/12/20 04:36:24;;;;;;;23.77;20.10;;;;;;;;;;5089690;28;20472;-76
2022/12/20 04:38:51;;;;;;;24.27;20.83;;;;;;;;;;5089712;28;20443;-74
2022/12/20 04:41:21;;;;;;;26.23;21.73;;;;;;;;;;5090322;28;20443;-73
2022/12/20 04:43:49;;;;;;;24.67;20.50;;;;;;;;;;5084910;28;20477;-73
2022/12/20 04:46:16;;;;;;;22.27;19.87;;;;;;;;;;5090044;28;20475;-74
2022/12/20 04:48:45;;;;;;;22.80;19.80;;;;;;;;;;5098561;28;20470;-75
2022/12/20 04:51:12;;;;;;;27.10;21.50;;;;;;;;;;5090559;28;20440;-73
2022/12/20 04:53:47;;;;;;;23.50;20.10;;;;;;;;;;5089892;28;20439;-75
2022/12/20 04:56:15;;;;;;;22.50;19.60;;;;;;;;;;5089984;28;20649;-74
2022/12/20 04:58:42;;;;;;;23.60;20.60;;;;;;;;;;5089901;28;20447;-75
2022/12/20 05:01:09;;;;;;;21.77;19.57;;;;;;;;;;5090078;28;20771;-75
2022/12/20 05:03:36;;;;;;;24.47;19.60;;;;;;;;;;5089151;28;20940;-74
2022/12/20 05:06:04;;;;;;;22.70;19.40;;;;;;;;;;5089805;28;20487;-76
2022/12/20 05:08:31;;;;;;;22.23;19.80;;;;;;;;;;5089670;28;20451;-75
2022/12/20 05:10:58;;;;;;;25.57;19.83;;;;;;;;;;5082392;28;20486;-74
2022/12/20 05:13:25;;;;;;;23.17;20.07;;;;;;;;;;5089075;28;20448;-75
2022/12/20 05:15:53;;;;;;;21.77;19.57;;;;;;;;;;5087924;28;20449;-74
2022/12/20 05:18:20;;;;;;;27.80;19.87;;;;;;;;;;5090352;28;20809;-74
2022/12/20 05:20:47;;;;;;;22.17;19.87;;;;;;;;;;5089538;28;20456;-76
2022/12/20 05:26:19;;;;;;;23.40;19.77;;;;;;;;;;5089406;28;20438;-74
2022/12/20 05:28:46;;;;;;;23.13;19.90;;;;;;;;;;5089424;28;20448;-74
2022/12/20 05:31:13;;;;;;;27.40;20.40;;;;;;;;;;5089188;28;20830;-74
2022/12/20 05:33:40;;;;;;;27.67;20.63;;;;;;;;;;5088531;28;20950;-74
2022/12/20 05:36:08;;;;;;;25.60;20.07;;;;;;;;;;5089883;28;20494;-75
2022/12/20 05:38:36;;;;;;;22.83;19.87;;;;;;;;;;5089464;28;20439;-74
2022/12/20 05:41:05;;;;;;;25.83;22.40;;;;;;;;;;5089264;28;20454;-75
2022/12/20 05:43:32;;;;;;;24.80;20.27;;;;;;;;;;5089015;28;20498;-74
2022/12/20 05:46:00;;;;;;;22.03;19.37;;;;;;;;;;5092095;28;20471;-75
2022/12/20 05:48:27;;;;;;;22.80;19.47;;;;;;;;;;5094295;28;20444;-75
2022/12/20 05:50:54;;;;;;;25.37;20.83;;;;;;;;;;5094011;28;20439;-75
2022/12/20 05:53:21;;;;;;;24.60;20.10;;;;;;;;;;5092489;28;20432;-74
2022/12/20 05:55:50;;;;;;;24.20;20.13;;;;;;;;;;5092939;28;20450;-76
2022/12/20 05:58:17;;;;;;;24.83;20.03;;;;;;;;;;5092926;28;20520;-76
2022/12/20 06:00:46;;;;;;;22.93;20.43;;;;;;;;;;5093662;28;20447;-75
2022/12/20 06:03:13;;;;;;;26.93;20.53;;;;;;;;;;5099397;28;20439;-76
2022/12/20 06:05:41;;;;;;;22.80;20.37;;;;;;;;;;5094923;28;20444;-74
2022/12/20 06:08:09;;;;;;;25.20;19.90;;;;;;;;;;5096793;28;20455;-74
2022/12/20 06:10:37;;;;;;;25.47;20.40;;;;;;;;;;5098846;28;20439;-74
2022/12/20 06:13:05;;;;;;;23.10;20.50;;;;;;;;;;5093523;28;20455;-74
2022/12/20 06:15:32;;;;;;;21.73;19.37;;;;;;;;;;5093545;28;20446;-75
2022/12/20 06:17:59;;;;;;;21.23;18.30;;;;;;;;;;5093540;28;20466;-75
2022/12/20 06:20:27;;;;;;;21.30;19.00;;;;;;;;;;5093578;28;20448;-75
2022/12/20 06:22:54;;;;;;;23.60;20.20;;;;;;;;;;5092758;28;20440;-75
2022/12/20 06:25:21;;;;;;;24.33;20.30;;;;;;;;;;5093189;28;20486;-76
2022/12/20 06:27:48;;;;;;;23.50;20.40;;;;;;;;;;5093417;28;20550;-74
2022/12/20 06:30:17;;;;;;;23.50;19.03;;;;;;;;;;5085146;28;20594;-74
2022/12/20 06:32:44;;;;;;;22.33;19.93;;;;;;;;;;5092399;28;20955;-75
2022/12/20 06:35:11;;;;;;;21.80;18.50;;;;;;;;;;5105570;28;20434;-75
2022/12/20 06:37:39;;;;;;;23.03;19.70;;;;;;;;;;5113065;28;20459;-76
2022/12/20 06:40:07;;;;;;;23.00;18.73;;;;;;;;;;5113223;28;20469;-75
2022/12/20 06:42:34;;;;;;;24.10;18.50;;;;;;;;;;5116229;28;20446;-75
2022/12/20 06:45:01;;;;;;;22.73;19.43;;;;;;;;;;5121949;28;20999;-76
2022/12/20 06:47:29;;;;;;;31.97;26.23;;;;;;;;;;5127009;28;20451;-74
2022/12/20 06:49:56;;;;;;;46.73;34.97;;;;;;;;;;5128544;28;20442;-74
2022/12/20 06:52:23;;;;;;;26.10;23.27;;;;;;;;;;5124629;28;20447;-74
2022/12/20 06:54:51;;;;;;;28.23;20.67;;;;;;;;;;5116325;28;20441;-75
2022/12/20 06:57:18;;;;;;;21.27;19.00;;;;;;;;;;5114909;28;20467;-76
2022/12/20 06:59:45;;;;;;;22.43;19.00;;;;;;;;;;5114236;28;20450;-75
2022/12/20 07:02:12;;;;;;;23.90;21.20;;;;;;;;;;5113384;28;20438;-78
2022/12/20 07:04:41;;;;;;;25.40;19.30;;;;;;;;;;5112461;28;20482;-76
2022/12/20 07:07:08;;;;;;;36.43;20.80;;;;;;;;;;5112703;28;20627;-75
2022/12/20 07:09:36;;;;;;;23.73;19.63;;;;;;;;;;5112731;28;20824;-75
2022/12/20 07:12:04;;;;;;;22.70;19.30;;;;;;;;;;5112976;28;20465;-75
2022/12/20 07:14:31;;;;;;;21.97;19.67;;;;;;;;;;5102870;28;20438;-75
2022/12/20 07:16:58;;;;;;;23.80;20.20;;;;;;;;;;5092098;28;20456;-75
2022/12/20 07:19:25;;;;;;;25.23;19.53;;;;;;;;;;5092333;28;20440;-75
2022/12/20 07:21:53;;;;;;;27.13;20.83;;;;;;;;;;5092174;28;20452;-75
2022/12/20 07:24:20;;;;;;;26.30;20.80;;;;;;;;;;5092059;28;20479;-75
2022/12/20 07:26:48;;;;;;;23.33;20.83;;;;;;;;;;5094765;28;20471;-74
2022/12/20 07:29:15;;;;;;;21.50;19.30;;;;;;;;;;5094312;28;21250;-75
2022/12/20 07:31:42;;;;;;;25.37;19.97;;;;;;;;;;5092114;28;20774;-74
2022/12/20 07:34:09;;;;;;;21.70;18.87;;;;;;;;;;5090846;28;20935;-75
2022/12/20 07:36:36;;;;;;;26.87;20.77;;;;;;;;;;5091476;28;20833;-75
2022/12/20 07:39:04;;;;;;;23.03;20.63;;;;;;;;;;5091874;28;20447;-76
2022/12/20 07:41:31;;;;;;;22.23;19.83;;;;;;;;;;5092027;28;20443;-75
2022/12/20 07:43:59;;;;;;;21.97;19.57;;;;;;;;;;5091092;28;20851;-74
2022/12/20 07:46:26;;;;;;;22.27;19.90;;;;;;;;;;5091279;28;20520;-74
2022/12/20 07:48:53;;;;;;;24.40;20.03;;;;;;;;;;5091963;28;20444;-76
2022/12/20 07:51:24;;;;;;;24.17;21.30;;;;;;;;;;5087620;28;20450;-75
2022/12/20 07:53:52;;;;;;;22.13;18.63;;;;;;;;;;5091652;28;20512;-75
2022/12/20 07:56:22;;;;;;;20.80;18.60;;;;;;;;;;5091760;28;20985;-75
2022/12/20 07:58:49;;;;;;;22.53;19.93;;;;;;;;;;5090972;28;20447;-74
2022/12/20 08:01:16;;;;;;;23.00;18.70;;;;;;;;;;5091031;28;20486;-76
2022/12/20 08:03:45;;;;;;;22.43;18.33;;;;;;;;;;5090561;28;20448;-75
2022/12/20 08:06:12;;;;;;;23.30;19.00;;;;;;;;;;5090994;28;20570;-75
2022/12/20 08:08:41;;;;;;;23.60;19.07;;;;;;;;;;5090270;28;20470;-76
2022/12/20 08:11:09;;;;;;;52.47;22.40;;;;;;;;;;5091289;28;20816;-75
2022/12/20 08:13:38;;;;;;;22.67;17.63;;;;;;;;;;5090251;28;20951;-74
2022/12/20 08:16:06;;;;;;;27.40;18.47;;;;;;;;;;5090893;28;20460;-74
2022/12/20 08:18:33;;;;;;;24.57;18.37;;;;;;;;;;5090745;28;20827;-73
2022/12/20 08:21:00;;;;;;;24.43;19.87;;;;;;;;;;5090532;28;20639;-74
2022/12/20 08:23:27;;;;;;;115.33;29.10;;;;;;;;;;5089726;28;20884;-75
2022/12/20 08:25:54;;;;;;;45.87;22.57;;;;;;;;;;5090606;28;20487;-75
2022/12/20 08:28:22;;;;;;;21.30;17.33;;;;;;;;;;5090992;28;20443;-74
2022/12/20 08:30:51;;;;;;;22.30;17.33;;;;;;;;;;5091055;28;20483;-75
2022/12/20 08:33:18;;;;;;;19.40;16.60;;;;;;;;;;5089721;28;20451;-74
2022/12/20 08:35:45;;;;;;;20.30;16.27;;;;;;;;;;5090430;28;20440;-74
2022/12/20 08:38:12;;;;;;;19.13;15.60;;;;;;;;;;5090356;28;20444;-73
2022/12/20 08:40:39;;;;;;;19.13;15.60;;;;;;;;;;5090646;28;20456;-74
2022/12/20 08:43:06;;;;;;;19.87;16.23;;;;;;;;;;5091184;28;20436;-75
2022/12/20 08:45:34;;;;;;;17.90;15.40;;;;;;;;;;5093215;28;20831;-75
2022/12/20 08:48:02;;;;;;;18.63;15.43;;;;;;;;;;5090599;28;20525;-75
2022/12/20 08:50:29;;;;;;;17.67;14.80;;;;;;;;;;5090916;28;20615;-74
2022/12/20 08:52:56;;;;;;;20.57;15.60;;;;;;;;;;5089991;28;20447;-75
2022/12/20 08:55:23;;;;;;;17.47;15.57;;;;;;;;;;5090885;28;20518;-74
2022/12/20 08:57:50;;;;;;;18.63;16.73;;;;;;;;;;5095552;28;20464;-76
2022/12/20 09:00:17;;;;;;;17.20;15.50;;;;;;;;;;5091698;28;20436;-75
2022/12/20 09:02:46;;;;;;;20.90;16.17;;;;;;;;;;5090144;28;20451;-76
2022/12/20 09:05:14;;;;;;;17.90;14.57;;;;;;;;;;5090934;28;20468;-74
2022/12/20 09:07:41;;;;;;;16.90;15.10;;;;;;;;;;5090575;28;20475;-75
2022/12/20 09:10:09;;;;;;;16.07;13.90;;;;;;;;;;5085421;28;20474;-75
2022/12/20 09:12:37;;;;;;;18.17;14.40;;;;;;;;;;5090595;28;20485;-75
2022/12/20 09:15:04;;;;;;;16.93;14.33;;;;;;;;;;5090774;28;20444;-75
2022/12/20 09:17:31;;;;;;;17.37;15.57;;;;;;;;;;5090535;28;20467;-76
2022/12/20 09:19:58;;;;;;;14.70;13.17;;;;;;;;;;5092363;28;20454;-75
2022/12/20 09:22:28;;;;;;;11.70;10.53;;;;;;;;;;5094114;28;20446;-74
2022/12/20 09:24:55;;;;;;;9.00;8.13;;;;;;;;;;5093980;28;20480;-75
2022/12/20 09:27:22;;;;;;;12.10;10.90;;;;;;;;;;5094673;28;21013;-75
2022/12/20 09:29:50;;;;;;;16.03;12.47;;;;;;;;;;5094630;28;20907;-76
2022/12/20 09:32:17;;;;;;;9.93;9.03;;;;;;;;;;5094551;28;20450;-75
2022/12/20 09:34:44;;;;;;;10.63;9.57;;;;;;;;;;5094193;28;20435;-75
2022/12/20 09:37:11;;;;;;;8.90;8.00;;;;;;;;;;5094432;28;20466;-75
2022/12/20 09:39:39;;;;;;;8.27;7.33;;;;;;;;;;5094118;28;20854;-77
2022/12/20 09:42:08;;;;;;;8.50;6.33;;;;;;;;;;5094768;28;20439;-76
2022/12/20 09:44:36;;;;;;;7.50;6.80;;;;;;;;;;5093502;28;20982;-75
2022/12/20 09:47:05;;;;;;;7.10;6.07;;;;;;;;;;5094252;28;20462;-76
2022/12/20 09:49:34;;;;;;;7.27;6.57;;;;;;;;;;5093814;28;20457;-75
2022/12/20 09:52:18;;;;;;;7.57;6.87;;;;;;;;;;5094871;28;20443;-76
2022/12/20 09:54:51;;;;;;;7.20;6.53;;;;;;;;;;5093320;28;20964;-75
2022/12/20 09:57:24;;;;;;;7.17;6.10;;;;;;;;;;5094742;28;20465;-75
2022/12/20 09:59:51;;;;;;;7.07;6.37;;;;;;;;;;5096082;28;20461;-76
2022/12/20 10:02:21;;;;;;;10.30;8.23;;;;;;;;;;5094494;28;20522;-76
2022/12/20 10:04:48;;;;;;;11.20;10.10;;;;;;;;;;5092671;28;20844;-76
2022/12/20 10:07:22;;;;;;;12.60;10.90;;;;;;;;;;5093391;28;20476;-75
2022/12/20 10:10:19;;;;;;;12.60;11.40;;;;;;;;;;5093544;28;20493;-76
2022/12/20 10:12:49;;;;;;;11.03;9.40;;;;;;;;;;5093310;28;20460;-75
2022/12/20 10:15:20;;;;;;;12.47;10.97;;;;;;;;;;5093500;28;20877;-74
2022/12/20 10:17:55;;;;;;;13.83;12.47;;;;;;;;;;5093536;28;20469;-77
2022/12/20 10:20:35;;;;;;;10.13;9.10;;;;;;;;;;5093362;28;20483;-76
2022/12/20 10:23:03;;;;;;;8.30;7.50;;;;;;;;;;5092536;28;20451;-76
2022/12/20 10:25:32;;;;;;;6.73;5.90;;;;;;;;;;5093281;28;20492;-74
2022/12/20 10:28:02;;;;;;;6.70;6.00;;;;;;;;;;5105897;28;20469;-75
2022/12/20 10:30:30;;;;;;;7.17;6.43;;;;;;;;;;5112876;28;20441;-76
2022/12/20 10:32:58;;;;;;;8.67;7.97;;;;;;;;;;5112868;28;20460;-76
2022/12/20 10:35:26;;;;;;;10.33;9.33;;;;;;;;;;5113231;28;20437;-76
2022/12/20 10:38:03;;;;;;;12.90;11.60;;;;;;;;;;5113213;28;20463;-75
2022/12/20 10:40:33;;;;;;;10.20;9.10;;;;;;;;;;5113159;28;20447;-77
2022/12/20 10:43:01;;;;;;;10.03;9.03;;;;;;;;;;5113153;28;20453;-75
2022/12/20 10:45:33;;;;;;;14.07;12.67;;;;;;;;;;5112716;28;20989;-77
2022/12/20 10:48:01;;;;;;;12.43;11.27;;;;;;;;;;5112657;28;20898;-76
2022/12/20 10:50:28;;;;;;;13.20;12.00;;;;;;;;;;5114126;28;20465;-76
2022/12/20 10:53:17;;;;;;;13.50;12.13;;;;;;;;;;5122914;28;20436;-76
2022/12/20 10:55:45;;;;;;;13.93;12.17;;;;;;;;;;5126213;28;20438;-75
2022/12/20 10:58:15;;;;;;;8.93;7.33;;;;;;;;;;5124322;28;20471;-75
2022/12/20 11:00:42;;;;;;;10.03;8.60;;;;;;;;;;5121360;28;20439;-76
2022/12/20 11:03:17;;;;;;;9.93;8.87;;;;;;;;;;5113475;28;20508;-76
2022/12/20 11:05:53;;;;;;;12.00;10.80;;;;;;;;;;5119256;28;20480;-76
2022/12/20 11:08:23;;;;;;;11.10;10.10;;;;;;;;;;5112925;28;20452;-76
2022/12/20 11:10:51;;;;;;;12.40;11.20;;;;;;;;;;5112168;28;20959;-75
2022/12/20 11:13:24;;;;;;;12.90;11.50;;;;;;;;;;5091782;28;20504;-76
2022/12/20 11:15:53;;;;;;;13.70;12.30;;;;;;;;;;5088409;28;20531;-75
2022/12/20 11:18:24;;;;;;;13.50;11.83;;;;;;;;;;5087708;28;20501;-75
2022/12/20 11:20:57;;;;;;;18.63;14.90;;;;;;;;;;5090556;28;20439;-76
2022/12/20 11:23:27;;;;;;;17.10;14.00;;;;;;;;;;5105875;28;20444;-76
2022/12/20 11:26:04;;;;;;;15.60;14.10;;;;;;;;;;5080762;28;20469;-77
2022/12/20 11:28:38;;;;;;;13.63;12.40;;;;;;;;;;5074025;28;20456;-75
2022/12/20 11:31:10;;;;;;;13.57;11.77;;;;;;;;;;5076845;28;20447;-76
2022/12/20 11:33:42;;;;;;;15.53;14.03;;;;;;;;;;5075546;28;20447;-76
2022/12/20 11:36:13;;;;;;;15.20;13.63;;;;;;;;;;5076217;28;20849;-76
2022/12/20 11:38:42;;;;;;;16.90;14.70;;;;;;;;;;5082963;28;20457;-78
2022/12/20 11:41:17;;;;;;;15.93;13.97;;;;;;;;;;5086935;28;20440;-76
2022/12/20 11:43:53;;;;;;;16.53;14.73;;;;;;;;;;5088802;28;21126;-77
2022/12/20 11:46:30;;;;;;;15.10;13.60;;;;;;;;;;5092732;28;20569;-76
2022/12/20 11:49:09;;;;;;;16.60;13.37;;;;;;;;;;5092735;28;20943;-76
2022/12/20 11:51:40;;;;;;;14.67;13.20;;;;;;;;;;5093246;28;20563;-76
2022/12/20 11:54:11;;;;;;;17.03;14.63;;;;;;;;;;5094409;28;20482;-75
2022/12/20 11:56:41;;;;;;;16.87;15.13;;;;;;;;;;5091621;28;20467;-76
2022/12/20 11:59:13;;;;;;;14.80;13.50;;;;;;;;;;5099078;28;20440;-78
2022/12/20 12:01:42;;;;;;;18.10;15.43;;;;;;;;;;5102137;28;20428;-76
2022/12/20 12:04:13;;;;;;;15.73;14.17;;;;;;;;;;5101298;28;20444;-76
2022/12/20 12:06:42;;;;;;;14.83;13.33;;;;;;;;;;5093604;28;20999;-76
2022/12/20 12:09:14;;;;;;;15.10;13.60;;;;;;;;;;5094447;28;20434;-75
2022/12/20 12:11:46;;;;;;;15.87;14.27;;;;;;;;;;5088004;28;20428;-77
2022/12/20 12:14:17;;;;;;;18.87;14.97;;;;;;;;;;5071347;28;20428;-77
2022/12/20 12:16:48;;;;;;;14.70;13.20;;;;;;;;;;5074127;28;20990;-77
2022/12/20 12:19:15;;;;;;;17.23;13.43;;;;;;;;;;5080083;28;20434;-76
2022/12/20 12:21:44;;;;;;;15.67;13.97;;;;;;;;;;5091379;28;20444;-76
2022/12/20 12:24:14;;;;;;;14.57;13.23;;;;;;;;;;5088131;28;20943;-76
2022/12/20 12:26:41;;;;;;;14.80;13.33;;;;;;;;;;5076472;28;20477;-76
2022/12/20 12:29:13;;;;;;;15.13;13.30;;;;;;;;;;5087302;28;20441;-77
2022/12/20 12:31:43;;;;;;;17.17;13.20;;;;;;;;;;5071975;28;20440;-75
2022/12/20 12:34:14;;;;;;;15.27;13.40;;;;;;;;;;5085553;28;20946;-77
2022/12/20 12:36:58;;;;;;;14.00;12.50;;;;;;;;;;5090842;28;20455;-76
2022/12/20 12:39:32;;;;;;;14.47;12.97;;;;;;;;;;5089381;28;20815;-77
2022/12/20 12:42:10;;;;;;;13.70;12.30;;;;;;;;;;5088091;28;20443;-76
2022/12/20 12:44:41;;;;;;;14.10;12.70;;;;;;;;;;5070258;28;20457;-78
2022/12/20 12:47:14;;;;;;;14.33;12.83;;;;;;;;;;5090281;28;20884;-76
2022/12/20 12:49:42;;;;;;;14.30;12.17;;;;;;;;;;5090556;28;20549;-76
2022/12/20 12:52:27;;;;;;;17.20;14.20;;;;;;;;;;5090725;28;20439;-75
2022/12/20 12:54:54;;;;;;;14.33;12.77;;;;;;;;;;5087735;28;20444;-76
2022/12/20 12:57:21;;;;;;;16.77;15.17;;;;;;;;;;5070076;28;20932;-75
2022/12/20 12:59:50;;;;;;;13.80;12.60;;;;;;;;;;5070032;28;20477;-75
2022/12/20 13:02:33;;;;;;;14.93;13.33;;;;;;;;;;5081158;28;20958;-75
2022/12/20 13:05:01;;;;;;;13.83;12.50;;;;;;;;;;5090303;28;20459;-75
2022/12/20 13:07:30;;;;;;;13.93;12.50;;;;;;;;;;5089497;28;20479;-75
2022/12/20 13:09:58;;;;;;;12.80;11.63;;;;;;;;;;5090219;28;21001;-76
2022/12/20 13:12:52;;;;;;;13.90;12.63;;;;;;;;;;5090420;28;20800;-75
2022/12/20 13:15:38;;;;;;;12.63;11.43;;;;;;;;;;5090490;28;20428;-76
2022/12/20 13:18:22;;;;;;;13.47;12.17;;;;;;;;;;5090225;28;20475;-77
2022/12/20 13:21:17;;;;;;;12.50;11.30;;;;;;;;;;5090481;28;20427;-76
2022/12/20 13:23:44;;;;;;;13.07;11.77;;;;;;;;;;5107677;28;20462;-77
2022/12/20 13:26:26;;;;;;;12.37;11.13;;;;;;;;;;5099881;28;20479;-76
2022/12/20 13:28:53;;;;;;;12.60;11.30;;;;;;;;;;5089626;28;20435;-76
2022/12/20 13:31:31;;;;;;;13.77;11.20;;;;;;;;;;5090224;28;20454;-75
2022/12/20 13:34:01;;;;;;;13.13;11.83;;;;;;;;;;5089337;28;20463;-77
2022/12/20 13:36:36;;;;;;;12.47;11.30;;;;;;;;;;5088877;28;20509;-75
2022/12/20 13:39:04;;;;;;;13.07;11.77;;;;;;;;;;5090674;28;20514;-76
2022/12/20 13:41:40;;;;;;;13.07;11.53;;;;;;;;;;5089654;28;20478;-77
2022/12/20 13:44:20;;;;;;;13.33;11.93;;;;;;;;;;5090306;28;20428;-77
2022/12/20 13:46:48;;;;;;;12.10;11.03;;;;;;;;;;5089543;28;20483;-77
2022/12/20 13:49:22;;;;;;;11.90;10.70;;;;;;;;;;5089938;28;21061;-77
2022/12/20 13:51:49;;;;;;;12.23;11.07;;;;;;;;;;5089871;28;20432;-76
2022/12/20 13:54:18;;;;;;;13.83;12.40;;;;;;;;;;5080932;28;20439;-75
2022/12/20 13:56:46;;;;;;;15.07;11.40;;;;;;;;;;5089590;28;20460;-76
2022/12/20 13:59:15;;;;;;;13.97;12.77;;;;;;;;;;5089880;28;20894;-77
2022/12/20 14:01:48;;;;;;;15.33;12.70;;;;;;;;;;5089756;28;20818;-76
2022/12/20 14:04:15;;;;;;;13.80;12.30;;;;;;;;;;5089673;28;20454;-77
2022/12/20 14:06:43;;;;;;;13.33;11.90;;;;;;;;;;5091697;28;20590;-76
2022/12/20 14:09:25;;;;;;;14.77;12.10;;;;;;;;;;5093538;28;20942;-76
2022/12/20 14:11:52;;;;;;;13.93;12.53;;;;;;;;;;5093701;28;20420;-76
2022/12/20 14:14:19;;;;;;;15.40;13.50;;;;;;;;;;5093296;28;20531;-74
2022/12/20 14:16:46;;;;;;;15.07;13.57;;;;;;;;;;5093298;28;20467;-76
2022/12/20 14:19:15;;;;;;;17.30;15.50;;;;;;;;;;5093436;28;20443;-75
2022/12/20 14:21:44;;;;;;;16.70;14.57;;;;;;;;;;5093807;28;20438;-76
2022/12/20 14:24:14;;;;;;;17.73;14.20;;;;;;;;;;5092633;28;20462;-76
2022/12/20 14:26:43;;;;;;;17.17;13.50;;;;;;;;;;5093051;28;20498;-76
2022/12/20 14:29:11;;;;;;;18.97;15.10;;;;;;;;;;5093604;28;20502;-75
2022/12/20 14:31:40;;;;;;;15.40;13.90;;;;;;;;;;5093826;28;20444;-74
2022/12/20 14:34:12;;;;;;;15.60;13.90;;;;;;;;;;5093836;28;20460;-76
2022/12/20 14:36:40;;;;;;;15.97;14.30;;;;;;;;;;5099976;28;20462;-75